createdAt,value
2017-10-30T00:00:53.613Z,1011.48
2017-10-30T00:01:55.491Z,1011.52
2017-10-30T00:02:57.371Z,1011.46
2017-10-30T00:04:11.519Z,1011.51
2017-10-30T00:05:13.395Z,1011.47
2017-10-30T00:06:15.288Z,1011.54
2017-10-30T00:07:17.161Z,1011.50
2017-10-30T00:08:18.979Z,1011.55
2017-10-30T00:09:20.791Z,1011.52
2017-10-30T00:10:22.671Z,1011.58
2017-10-30T00:11:24.545Z,1011.60
2017-10-30T00:12:26.430Z,1011.54
2017-10-30T00:13:40.574Z,1011.64
2017-10-30T00:14:42.448Z,1011.58
2017-10-30T00:15:44.325Z,1011.56
2017-10-30T00:16:46.211Z,1011.67
2017-10-30T00:17:48.038Z,1011.64
2017-10-30T00:18:49.850Z,1011.67
2017-10-30T00:19:51.731Z,1011.61
2017-10-30T00:20:53.604Z,1011.69
2017-10-30T00:21:55.483Z,1011.68
2017-10-30T00:23:09.682Z,1011.74
2017-10-30T00:24:11.557Z,1011.69
2017-10-30T00:25:13.434Z,1011.71
2017-10-30T00:26:15.311Z,1011.69
2017-10-30T00:27:17.123Z,1011.72
2017-10-30T00:28:18.938Z,1011.82
2017-10-30T00:29:20.815Z,1011.86
2017-10-30T00:30:22.689Z,1011.82
2017-10-30T00:31:24.568Z,1011.89
2017-10-30T00:32:38.718Z,1011.91
2017-10-30T00:33:40.596Z,1011.87
2017-10-30T00:34:42.476Z,1011.91
2017-10-30T00:35:44.373Z,1011.92
2017-10-30T00:36:46.200Z,1011.93
2017-10-30T00:37:48.008Z,1011.92
2017-10-30T00:38:49.881Z,1011.99
2017-10-30T00:39:51.758Z,1011.95
2017-10-30T00:40:53.635Z,1012.05
2017-10-30T00:42:07.791Z,1012.01
2017-10-30T00:43:09.666Z,1012.01
2017-10-30T00:44:11.539Z,1011.98
2017-10-30T00:45:13.415Z,1012.00
2017-10-30T00:46:15.228Z,1012.06
2017-10-30T00:47:17.041Z,1011.93
2017-10-30T00:48:18.919Z,1011.96
2017-10-30T00:49:20.794Z,1011.99
2017-10-30T00:50:22.677Z,1012.02
2017-10-30T00:51:36.872Z,1011.97
2017-10-30T00:52:38.745Z,1011.98
2017-10-30T00:53:40.623Z,1012.01
2017-10-30T00:54:42.502Z,1012.05
2017-10-30T00:55:44.314Z,1011.97
2017-10-30T00:56:46.151Z,1012.00
2017-10-30T00:57:48.014Z,1012.02
2017-10-30T00:58:49.916Z,1012.03
2017-10-30T00:59:51.794Z,1012.03
2017-10-30T01:01:05.993Z,1012.01
2017-10-30T01:02:07.868Z,1012.02
2017-10-30T01:03:09.749Z,1012.00
2017-10-30T01:04:11.623Z,1012.03
2017-10-30T01:05:13.446Z,1012.01
2017-10-30T01:06:15.262Z,1012.05
2017-10-30T01:07:17.148Z,1012.03
2017-10-30T01:08:19.014Z,1011.98
2017-10-30T01:09:20.892Z,1011.98
2017-10-30T01:10:35.089Z,1012.00
2017-10-30T01:11:36.964Z,1011.94
2017-10-30T01:12:38.843Z,1012.01
2017-10-30T01:13:40.717Z,1012.00
2017-10-30T01:14:42.535Z,1012.02
2017-10-30T01:15:44.351Z,1011.99
2017-10-30T01:16:46.251Z,1011.95
2017-10-30T01:17:48.105Z,1012.01
2017-10-30T01:18:49.982Z,1012.04
2017-10-30T01:20:04.149Z,1011.97
2017-10-30T01:21:06.010Z,1012.01
2017-10-30T01:22:07.892Z,1012.04
2017-10-30T01:23:09.777Z,1011.98
2017-10-30T01:24:11.593Z,1012.03
2017-10-30T01:25:13.406Z,1012.07
2017-10-30T01:26:15.284Z,1012.02
2017-10-30T01:27:17.120Z,1012.09
2017-10-30T01:28:18.934Z,1012.05
2017-10-30T01:29:33.083Z,1012.14
2017-10-30T01:30:34.959Z,1012.13
2017-10-30T01:31:36.836Z,1012.13
2017-10-30T01:32:38.713Z,1012.16
2017-10-30T01:33:40.526Z,1012.12
2017-10-30T01:34:42.339Z,1012.18
2017-10-30T01:35:44.220Z,1012.21
2017-10-30T01:36:46.091Z,1012.15
2017-10-30T01:37:47.969Z,1012.17
2017-10-30T01:39:02.126Z,1012.21
2017-10-30T01:40:03.997Z,1012.19
2017-10-30T01:41:05.876Z,1012.23
2017-10-30T01:42:07.753Z,1012.25
2017-10-30T01:43:09.569Z,1012.24
2017-10-30T01:44:11.383Z,1012.21
2017-10-30T01:45:13.260Z,1012.27
2017-10-30T01:46:15.136Z,1012.26
2017-10-30T01:47:17.014Z,1012.30
2017-10-30T01:48:31.163Z,1012.21
2017-10-30T01:49:33.040Z,1012.23
2017-10-30T01:50:34.927Z,1012.25
2017-10-30T01:51:36.790Z,1012.29
2017-10-30T01:52:38.605Z,1012.25
2017-10-30T01:53:40.418Z,1012.26
2017-10-30T01:54:42.299Z,1012.17
2017-10-30T01:55:44.173Z,1012.17
2017-10-30T01:56:46.051Z,1012.13
2017-10-30T01:58:00.206Z,1012.08
2017-10-30T01:59:02.082Z,1012.19
2017-10-30T02:00:03.960Z,1012.18
2017-10-30T02:01:05.845Z,1012.16
2017-10-30T02:02:07.660Z,1012.19
2017-10-30T02:03:09.474Z,1012.12
2017-10-30T02:04:11.354Z,1012.17
2017-10-30T02:05:13.231Z,1012.16
2017-10-30T02:06:15.107Z,1012.22
2017-10-30T02:07:29.239Z,1012.12
2017-10-30T02:08:31.120Z,1012.17
2017-10-30T02:09:32.996Z,1012.20
2017-10-30T02:10:34.883Z,1012.30
2017-10-30T02:11:36.692Z,1012.20
2017-10-30T02:12:38.506Z,1012.24
2017-10-30T02:13:40.382Z,1012.26
2017-10-30T02:14:42.261Z,1012.29
2017-10-30T02:15:44.147Z,1012.29
2017-10-30T02:16:58.300Z,1012.29
2017-10-30T02:18:00.175Z,1012.21
2017-10-30T02:19:02.053Z,1012.31
2017-10-30T02:20:03.930Z,1012.27
2017-10-30T02:21:05.743Z,1012.24
2017-10-30T02:22:07.558Z,1012.32
2017-10-30T02:23:09.434Z,1012.34
2017-10-30T02:24:11.309Z,1012.26
2017-10-30T02:25:13.188Z,1012.34
2017-10-30T02:26:27.336Z,1012.32
2017-10-30T02:27:29.212Z,1012.34
2017-10-30T02:28:31.089Z,1012.39
2017-10-30T02:29:32.965Z,1012.35
2017-10-30T02:30:34.780Z,1012.63
2017-10-30T02:31:36.593Z,1012.36
2017-10-30T02:32:38.475Z,1012.44
2017-10-30T02:33:40.349Z,1012.36
2017-10-30T02:34:42.237Z,1012.38
2017-10-30T02:35:56.375Z,1012.38
2017-10-30T02:36:58.266Z,1012.38
2017-10-30T02:38:00.144Z,1012.48
2017-10-30T02:39:02.018Z,1012.42
2017-10-30T02:40:03.834Z,1012.38
2017-10-30T02:41:05.655Z,1012.47
2017-10-30T02:42:07.523Z,1012.46
2017-10-30T02:43:09.399Z,1012.41
2017-10-30T02:44:11.278Z,1012.30
2017-10-30T02:45:25.427Z,1012.47
2017-10-30T02:46:31.323Z,1012.43
2017-10-30T02:47:33.209Z,1012.35
2017-10-30T02:48:35.077Z,1012.41
2017-10-30T02:49:36.894Z,1012.49
2017-10-30T02:50:38.703Z,1012.48
2017-10-30T02:51:40.579Z,1012.45
2017-10-30T02:52:42.453Z,1012.47
2017-10-30T02:53:44.328Z,1012.46
2017-10-30T02:54:58.524Z,1012.54
2017-10-30T02:56:00.398Z,1012.51
2017-10-30T02:57:02.276Z,1012.49
2017-10-30T02:58:04.148Z,1012.51
2017-10-30T02:59:05.964Z,1012.47
2017-10-30T03:00:07.776Z,1012.55
2017-10-30T03:01:09.649Z,1012.64
2017-10-30T03:02:11.524Z,1012.56
2017-10-30T03:03:13.399Z,1012.63
2017-10-30T03:04:27.544Z,1012.56
2017-10-30T03:05:29.421Z,1012.52
2017-10-30T03:06:31.300Z,1012.69
2017-10-30T03:07:33.174Z,1012.67
2017-10-30T03:08:34.988Z,1012.77
2017-10-30T03:09:36.802Z,1012.62
2017-10-30T03:10:38.675Z,1012.66
2017-10-30T03:11:40.550Z,1012.73
2017-10-30T03:12:42.424Z,1012.72
2017-10-30T03:13:56.620Z,1012.70
2017-10-30T03:14:58.494Z,1012.69
2017-10-30T03:16:00.372Z,1012.78
2017-10-30T03:17:02.244Z,1012.73
2017-10-30T03:18:04.068Z,1012.70
2017-10-30T03:19:05.869Z,1012.70
2017-10-30T03:20:07.744Z,1012.62
2017-10-30T03:21:09.618Z,1012.69
2017-10-30T03:22:11.494Z,1012.71
2017-10-30T03:23:25.640Z,1012.77
2017-10-30T03:24:27.524Z,1012.69
2017-10-30T03:25:29.402Z,1012.74
2017-10-30T03:26:31.280Z,1012.85
2017-10-30T03:27:33.092Z,1012.67
2017-10-30T03:28:34.903Z,1012.87
2017-10-30T03:29:36.776Z,1012.85
2017-10-30T03:30:38.651Z,1012.93
2017-10-30T03:31:40.523Z,1012.91
2017-10-30T03:32:54.667Z,1012.87
2017-10-30T03:33:56.541Z,1012.90
2017-10-30T03:34:58.421Z,1012.88
2017-10-30T03:36:00.292Z,1012.88
2017-10-30T03:37:02.107Z,1012.96
2017-10-30T03:38:03.920Z,1012.95
2017-10-30T03:39:05.792Z,1012.90
2017-10-30T03:40:07.668Z,1012.99
2017-10-30T03:41:09.540Z,1012.92
2017-10-30T03:42:23.687Z,1012.98
2017-10-30T03:43:25.561Z,1013.01
2017-10-30T03:44:27.438Z,1012.95
2017-10-30T03:45:29.312Z,1013.04
2017-10-30T03:46:31.127Z,1013.09
2017-10-30T03:47:32.939Z,1013.16
2017-10-30T03:48:34.814Z,1013.15
2017-10-30T03:49:36.689Z,1013.02
2017-10-30T03:50:38.562Z,1013.15
2017-10-30T03:51:52.762Z,1013.22
2017-10-30T03:52:54.634Z,1013.10
2017-10-30T03:53:56.523Z,1013.20
2017-10-30T03:54:58.394Z,1013.16
2017-10-30T03:56:00.219Z,1013.17
2017-10-30T03:57:02.029Z,1013.14
2017-10-30T03:58:03.905Z,1013.17
2017-10-30T03:59:05.780Z,1013.16
2017-10-30T04:00:07.655Z,1013.17
2017-10-30T04:01:21.802Z,1013.20
2017-10-30T04:02:23.675Z,1013.28
2017-10-30T04:03:25.553Z,1013.15
2017-10-30T04:04:27.426Z,1013.26
2017-10-30T04:05:29.240Z,1013.13
2017-10-30T04:06:31.053Z,1013.20
2017-10-30T04:07:32.925Z,1013.25
2017-10-30T04:08:34.799Z,1013.26
2017-10-30T04:09:36.673Z,1013.26
2017-10-30T04:10:50.821Z,1013.31
2017-10-30T04:11:52.695Z,1013.30
2017-10-30T04:12:54.576Z,1013.34
2017-10-30T04:13:56.447Z,1013.42
2017-10-30T04:14:58.263Z,1013.32
2017-10-30T04:16:00.074Z,1013.40
2017-10-30T04:17:01.948Z,1013.32
2017-10-30T04:18:03.823Z,1013.39
2017-10-30T04:19:05.708Z,1013.51
2017-10-30T04:20:19.856Z,1013.50
2017-10-30T04:21:21.729Z,1013.42
2017-10-30T04:22:23.609Z,1013.43
2017-10-30T04:23:25.482Z,1013.42
2017-10-30T04:24:27.297Z,1013.47
2017-10-30T04:25:29.110Z,1013.45
2017-10-30T04:26:30.949Z,1013.47
2017-10-30T04:27:32.756Z,1013.49
2017-10-30T04:28:34.571Z,1013.51
2017-10-30T04:29:48.770Z,1013.52
2017-10-30T04:30:50.668Z,1013.52
2017-10-30T04:31:52.547Z,1013.56
2017-10-30T04:32:54.428Z,1013.62
2017-10-30T04:33:56.239Z,1013.69
2017-10-30T04:34:58.052Z,1013.59
2017-10-30T04:35:59.928Z,1013.52
2017-10-30T04:37:01.804Z,1013.60
2017-10-30T04:38:03.679Z,1013.52
2017-10-30T04:39:17.827Z,1013.47
2017-10-30T04:40:19.726Z,1013.47
2017-10-30T04:41:21.602Z,1013.59
2017-10-30T04:42:23.478Z,1013.51
2017-10-30T04:43:25.305Z,1013.51
2017-10-30T04:44:27.116Z,1013.54
2017-10-30T04:45:28.990Z,1013.54
2017-10-30T04:46:30.865Z,1013.57
2017-10-30T04:47:32.741Z,1013.68
2017-10-30T04:48:46.887Z,1013.70
2017-10-30T04:49:48.759Z,1013.58
2017-10-30T04:50:50.640Z,1013.57
2017-10-30T04:51:52.511Z,1013.59
2017-10-30T04:52:54.328Z,1013.53
2017-10-30T04:53:56.141Z,1013.68
2017-10-30T04:54:58.014Z,1013.62
2017-10-30T04:55:59.894Z,1013.57
2017-10-30T04:57:01.768Z,1013.58
2017-10-30T04:58:15.914Z,1013.58
2017-10-30T04:59:17.788Z,1013.58
2017-10-30T05:00:19.667Z,1013.60
2017-10-30T05:01:21.539Z,1013.65
2017-10-30T05:02:23.368Z,1013.57
2017-10-30T05:03:25.165Z,1013.56
2017-10-30T05:04:27.039Z,1013.57
2017-10-30T05:05:28.914Z,1013.55
2017-10-30T05:06:30.785Z,1013.58
2017-10-30T05:07:44.981Z,1013.65
2017-10-30T05:08:46.853Z,1013.66
2017-10-30T05:09:48.731Z,1013.62
2017-10-30T05:10:50.608Z,1013.56
2017-10-30T05:11:52.426Z,1013.58
2017-10-30T05:12:54.237Z,1013.62
2017-10-30T05:13:56.117Z,1013.57
2017-10-30T05:14:57.986Z,1013.55
2017-10-30T05:15:59.875Z,1013.54
2017-10-30T05:17:14.059Z,1013.52
2017-10-30T05:18:15.934Z,1013.55
2017-10-30T05:19:17.813Z,1013.61
2017-10-30T05:20:19.688Z,1013.59
2017-10-30T05:21:21.505Z,1013.67
2017-10-30T05:22:23.315Z,1013.66
2017-10-30T05:23:25.189Z,1013.66
2017-10-30T05:24:27.063Z,1013.59
2017-10-30T05:25:28.943Z,1013.60
2017-10-30T05:26:43.086Z,1013.61
2017-10-30T05:27:44.960Z,1013.73
2017-10-30T05:28:46.838Z,1013.75
2017-10-30T05:29:48.714Z,1013.69
2017-10-30T05:30:50.529Z,1013.69
2017-10-30T05:31:52.341Z,1013.66
2017-10-30T05:32:54.217Z,1013.76
2017-10-30T05:33:56.115Z,1013.78
2017-10-30T05:34:58.000Z,1013.77
2017-10-30T05:36:12.153Z,1013.82
2017-10-30T05:37:14.027Z,1013.83
2017-10-30T05:38:15.905Z,1013.83
2017-10-30T05:39:17.799Z,1013.87
2017-10-30T05:40:19.593Z,1013.94
2017-10-30T05:41:21.404Z,1013.99
2017-10-30T05:42:23.294Z,1013.94
2017-10-30T05:43:25.169Z,1013.98
2017-10-30T05:44:27.043Z,1014.00
2017-10-30T05:45:41.191Z,1013.99
2017-10-30T05:46:43.065Z,1013.94
2017-10-30T05:47:44.948Z,1013.98
2017-10-30T05:48:46.822Z,1013.99
2017-10-30T05:49:48.636Z,1013.96
2017-10-30T05:50:50.449Z,1014.05
2017-10-30T05:51:52.323Z,1014.02
2017-10-30T05:52:54.202Z,1014.03
2017-10-30T05:53:56.079Z,1014.07
2017-10-30T05:55:10.231Z,1014.06
2017-10-30T05:56:12.109Z,1014.22
2017-10-30T05:57:13.992Z,1014.24
2017-10-30T05:58:15.866Z,1014.16
2017-10-30T05:59:17.698Z,1014.19
2017-10-30T06:00:19.517Z,1014.23
2017-10-30T06:01:21.394Z,1014.23
2017-10-30T06:02:23.271Z,1014.20
2017-10-30T06:03:25.147Z,1014.13
2017-10-30T06:04:39.297Z,1014.18
2017-10-30T06:05:41.174Z,1014.21
2017-10-30T06:06:43.057Z,1014.19
2017-10-30T06:07:44.933Z,1014.25
2017-10-30T06:08:46.780Z,1014.27
2017-10-30T06:09:48.618Z,1014.27
2017-10-30T06:10:50.502Z,1014.30
2017-10-30T06:11:52.407Z,1014.32
2017-10-30T06:12:54.286Z,1014.43
2017-10-30T06:14:08.438Z,1014.37
2017-10-30T06:15:10.315Z,1014.47
2017-10-30T06:16:12.199Z,1014.51
2017-10-30T06:17:14.075Z,1014.60
2017-10-30T06:18:15.894Z,1014.59
2017-10-30T06:19:17.722Z,1014.62
2017-10-30T06:20:19.599Z,1014.66
2017-10-30T06:21:21.476Z,1014.64
2017-10-30T06:22:23.353Z,1014.67
2017-10-30T06:23:37.502Z,1014.72
2017-10-30T06:24:39.380Z,1014.73
2017-10-30T06:25:41.274Z,1014.71
2017-10-30T06:26:43.146Z,1014.74
2017-10-30T06:27:44.975Z,1014.71
2017-10-30T06:28:46.796Z,1014.73
2017-10-30T06:29:48.674Z,1014.81
2017-10-30T06:30:50.554Z,1014.75
2017-10-30T06:31:52.432Z,1014.76
2017-10-30T06:33:06.584Z,1015.33
2017-10-30T06:34:08.462Z,1014.76
2017-10-30T06:35:10.343Z,1014.84
2017-10-30T06:36:12.218Z,1014.79
2017-10-30T06:37:14.037Z,1015.02
2017-10-30T06:38:15.853Z,1014.91
2017-10-30T06:39:17.731Z,1014.83
2017-10-30T06:40:19.609Z,1014.93
2017-10-30T06:41:21.488Z,1014.91
2017-10-30T06:42:35.638Z,1014.97
2017-10-30T06:43:37.515Z,1014.92
2017-10-30T06:44:39.399Z,1014.94
2017-10-30T06:45:41.383Z,1014.92
2017-10-30T06:46:43.204Z,1014.97
2017-10-30T06:47:45.043Z,1015.16
2017-10-30T06:48:46.858Z,1015.09
2017-10-30T06:49:48.736Z,1015.01
2017-10-30T06:50:50.613Z,1015.03
2017-10-30T06:52:04.764Z,1015.09
2017-10-30T06:53:06.642Z,1015.18
2017-10-30T06:54:08.674Z,1015.31
2017-10-30T06:55:10.533Z,1015.26
2017-10-30T06:56:12.353Z,1015.28
2017-10-30T06:57:14.167Z,1015.25
2017-10-30T06:58:16.061Z,1015.27
2017-10-30T06:59:17.940Z,1015.34
2017-10-30T07:00:19.831Z,1015.31
2017-10-30T07:01:34.036Z,1015.30
2017-10-30T07:02:35.915Z,1015.21
2017-10-30T07:03:37.797Z,1015.25
2017-10-30T07:04:39.678Z,1015.36
2017-10-30T07:05:41.512Z,1015.27
2017-10-30T07:06:43.330Z,1015.32
2017-10-30T07:07:45.212Z,1015.39
2017-10-30T07:08:47.090Z,1015.34
2017-10-30T07:09:48.972Z,1015.40
2017-10-30T07:11:03.126Z,1015.40
2017-10-30T07:12:05.004Z,1015.40
2017-10-30T07:13:06.890Z,1015.41
2017-10-30T07:14:08.768Z,1015.52
2017-10-30T07:15:10.589Z,1015.62
2017-10-30T07:16:12.408Z,1015.64
2017-10-30T07:17:14.289Z,1015.72
2017-10-30T07:18:16.168Z,1015.72
2017-10-30T07:19:18.048Z,1015.77
2017-10-30T07:20:32.219Z,1015.79
2017-10-30T07:21:34.100Z,1015.84
2017-10-30T07:22:35.984Z,1015.88
2017-10-30T07:23:37.861Z,1015.80
2017-10-30T07:24:39.682Z,1015.89
2017-10-30T07:25:41.501Z,1015.92
2017-10-30T07:26:43.377Z,1015.89
2017-10-30T07:27:45.264Z,1015.90
2017-10-30T07:28:47.144Z,1015.97
2017-10-30T07:30:01.290Z,1016.02
2017-10-30T07:31:03.168Z,1015.93
2017-10-30T07:32:05.053Z,1016.27
2017-10-30T07:33:06.931Z,1015.96
2017-10-30T07:34:08.751Z,1015.98
2017-10-30T07:35:10.569Z,1016.06
2017-10-30T07:36:12.448Z,1016.04
2017-10-30T07:37:14.327Z,1016.02
2017-10-30T07:38:16.206Z,1016.02
2017-10-30T07:39:30.362Z,1016.04
2017-10-30T07:40:32.241Z,1016.01
2017-10-30T07:41:34.123Z,1016.10
2017-10-30T07:42:36.005Z,1016.08
2017-10-30T07:43:37.823Z,1016.07
2017-10-30T07:44:39.653Z,1016.12
2017-10-30T07:45:41.533Z,1016.11
2017-10-30T07:46:43.413Z,1016.06
2017-10-30T07:47:45.295Z,1016.15
2017-10-30T07:48:59.445Z,1016.13
2017-10-30T07:50:01.323Z,1016.15
2017-10-30T07:51:03.207Z,1016.10
2017-10-30T07:52:05.091Z,1016.19
2017-10-30T07:53:06.908Z,1016.20
2017-10-30T07:54:08.723Z,1016.28
2017-10-30T07:55:10.602Z,1016.16
2017-10-30T07:56:12.480Z,1016.14
2017-10-30T07:57:14.372Z,1016.20
2017-10-30T07:58:28.526Z,1016.20
2017-10-30T07:59:30.403Z,1016.25
2017-10-30T08:00:32.286Z,1016.23
2017-10-30T08:01:34.172Z,1016.16
2017-10-30T08:02:35.991Z,1016.12
2017-10-30T08:03:37.800Z,1016.21
2017-10-30T08:04:39.692Z,1016.25
2017-10-30T08:05:41.574Z,1016.24
2017-10-30T08:06:43.463Z,1016.21
2017-10-30T08:07:57.618Z,1016.27
2017-10-30T08:08:59.496Z,1016.36
2017-10-30T08:10:01.381Z,1016.37
2017-10-30T08:11:03.261Z,1016.43
2017-10-30T08:12:05.082Z,1016.26
2017-10-30T08:13:06.895Z,1016.28
2017-10-30T08:14:08.776Z,1016.32
2017-10-30T08:15:10.654Z,1016.40
2017-10-30T08:16:12.536Z,1016.28
2017-10-30T08:17:26.735Z,1016.36
2017-10-30T08:18:28.616Z,1016.59
2017-10-30T08:19:30.498Z,1016.35
2017-10-30T08:20:32.378Z,1016.34
2017-10-30T08:21:34.199Z,1016.35
2017-10-30T08:22:36.019Z,1016.29
2017-10-30T08:23:37.898Z,1016.60
2017-10-30T08:24:39.779Z,1016.38
2017-10-30T08:25:41.658Z,1016.46
2017-10-30T08:26:55.811Z,1016.51
2017-10-30T08:27:57.702Z,1016.40
2017-10-30T08:28:59.584Z,1016.48
2017-10-30T08:30:01.465Z,1016.48
2017-10-30T08:31:03.285Z,1016.43
2017-10-30T08:32:05.168Z,1016.54
2017-10-30T08:33:07.048Z,1016.70
2017-10-30T08:34:08.931Z,1016.76
2017-10-30T08:35:11.178Z,1016.51
2017-10-30T08:36:25.476Z,1016.57
2017-10-30T08:37:27.413Z,1016.81
2017-10-30T08:38:29.299Z,1016.86
2017-10-30T08:39:31.180Z,1016.82
2017-10-30T08:40:33.002Z,1016.81
2017-10-30T08:41:34.822Z,1017.00
2017-10-30T08:42:36.744Z,1016.81
2017-10-30T08:43:38.590Z,1016.84
2017-10-30T08:44:40.470Z,1016.82
2017-10-30T08:45:54.625Z,1016.91
2017-10-30T08:46:56.553Z,1017.04
2017-10-30T08:47:58.414Z,1017.03
2017-10-30T08:49:00.312Z,1016.87
2017-10-30T08:50:02.132Z,1016.84
2017-10-30T08:51:03.950Z,1016.89
2017-10-30T08:52:05.832Z,1017.01
2017-10-30T08:53:07.714Z,1016.96
2017-10-30T08:54:09.643Z,1016.99
2017-10-30T08:55:23.858Z,1017.20
2017-10-30T08:56:25.747Z,1017.17
2017-10-30T08:57:27.630Z,1016.90
2017-10-30T08:58:29.511Z,1017.01
2017-10-30T08:59:31.335Z,1017.06
2017-10-30T09:00:33.156Z,1017.18
2017-10-30T09:01:35.035Z,1017.25
2017-10-30T09:02:36.914Z,1017.19
2017-10-30T09:03:38.795Z,1017.24
2017-10-30T09:04:52.954Z,1017.12
2017-10-30T09:05:54.830Z,1017.23
2017-10-30T09:06:56.739Z,1017.10
2017-10-30T09:07:58.598Z,1017.21
2017-10-30T09:09:00.433Z,1017.22
2017-10-30T09:10:02.270Z,1017.23
2017-10-30T09:11:04.138Z,1017.38
2017-10-30T09:12:06.017Z,1017.40
2017-10-30T09:13:07.898Z,1017.24
2017-10-30T09:14:22.053Z,1017.36
2017-10-30T09:15:23.968Z,1017.39
2017-10-30T09:16:25.817Z,1017.51
2017-10-30T09:17:27.699Z,1017.40
2017-10-30T09:18:29.520Z,1017.25
2017-10-30T09:19:31.343Z,1017.30
2017-10-30T09:20:33.221Z,1017.37
2017-10-30T09:21:35.103Z,1017.49
2017-10-30T09:22:36.982Z,1017.44
2017-10-30T09:23:51.156Z,1017.44
2017-10-30T09:24:53.021Z,1017.43
2017-10-30T09:25:54.907Z,1017.50
2017-10-30T09:26:56.788Z,1017.44
2017-10-30T09:27:58.621Z,1017.46
2017-10-30T09:29:00.441Z,1017.53
2017-10-30T09:30:02.325Z,1017.52
2017-10-30T09:31:04.211Z,1017.37
2017-10-30T09:32:06.088Z,1017.42
2017-10-30T09:33:20.250Z,1017.54
2017-10-30T09:34:22.128Z,1017.59
2017-10-30T09:35:24.014Z,1017.62
2017-10-30T09:36:25.892Z,1017.61
2017-10-30T09:37:27.714Z,1017.50
2017-10-30T09:38:29.544Z,1017.46
2017-10-30T09:39:31.425Z,1017.45
2017-10-30T09:40:33.305Z,1017.57
2017-10-30T09:41:35.185Z,1017.61
2017-10-30T09:42:49.321Z,1017.58
2017-10-30T09:43:51.202Z,1017.86
2017-10-30T09:44:53.090Z,1017.59
2017-10-30T09:45:54.967Z,1017.78
2017-10-30T09:46:56.787Z,1017.63
2017-10-30T09:47:58.608Z,1017.48
2017-10-30T09:49:00.514Z,1017.61
2017-10-30T09:50:02.398Z,1017.60
2017-10-30T09:51:04.282Z,1017.66
2017-10-30T09:52:18.435Z,1017.68
2017-10-30T09:53:20.316Z,1017.57
2017-10-30T09:54:22.199Z,1018.00
2017-10-30T09:55:24.078Z,1017.59
2017-10-30T09:56:25.919Z,1017.74
2017-10-30T09:57:27.738Z,1017.75
2017-10-30T09:58:29.614Z,1017.76
2017-10-30T09:59:31.497Z,1017.56
2017-10-30T10:00:33.373Z,1017.62
2017-10-30T10:01:47.529Z,1017.42
2017-10-30T10:02:49.410Z,1017.53
2017-10-30T10:03:51.296Z,1017.64
2017-10-30T10:04:53.178Z,1017.73
2017-10-30T10:05:54.999Z,1017.84
2017-10-30T10:06:56.818Z,1017.86
2017-10-30T10:07:58.700Z,1017.90
2017-10-30T10:09:00.583Z,1017.65
2017-10-30T10:10:02.462Z,1017.89
2017-10-30T10:11:16.621Z,1017.86
2017-10-30T10:12:18.501Z,1017.66
2017-10-30T10:13:20.440Z,1017.71
2017-10-30T10:14:22.321Z,1017.81
2017-10-30T10:15:24.155Z,1017.58
2017-10-30T10:16:25.974Z,1017.54
2017-10-30T10:17:27.859Z,1017.58
2017-10-30T10:18:29.743Z,1017.65
2017-10-30T10:19:31.626Z,1017.67
2017-10-30T10:20:45.840Z,1017.73
2017-10-30T10:21:47.718Z,1017.80
2017-10-30T10:22:49.601Z,1017.79
2017-10-30T10:23:51.507Z,1017.83
2017-10-30T10:24:53.393Z,1017.87
2017-10-30T10:25:55.184Z,1017.90
2017-10-30T10:26:57.062Z,1017.79
2017-10-30T10:27:58.946Z,1017.77
2017-10-30T10:29:00.833Z,1017.75
2017-10-30T10:30:14.996Z,1017.91
2017-10-30T10:31:16.874Z,1017.87
2017-10-30T10:32:18.792Z,1017.77
2017-10-30T10:33:20.676Z,1017.72
2017-10-30T10:34:22.516Z,1017.68
2017-10-30T10:35:24.328Z,1017.90
2017-10-30T10:36:26.215Z,1017.73
2017-10-30T10:37:28.096Z,1017.87
2017-10-30T10:38:29.977Z,1017.79
2017-10-30T10:39:44.132Z,1017.89
2017-10-30T10:40:46.024Z,1017.73
2017-10-30T10:41:47.922Z,1017.87
2017-10-30T10:42:49.792Z,1017.85
2017-10-30T10:43:51.614Z,1017.78
2017-10-30T10:44:53.450Z,1017.78
2017-10-30T10:45:55.332Z,1017.73
2017-10-30T10:46:57.212Z,1017.81
2017-10-30T10:47:59.097Z,1017.96
2017-10-30T10:49:13.252Z,1017.87
2017-10-30T10:50:15.133Z,1018.05
2017-10-30T10:51:17.037Z,1017.87
2017-10-30T10:52:19.001Z,1017.87
2017-10-30T10:53:20.878Z,1018.10
2017-10-30T10:54:22.759Z,1017.92
2017-10-30T10:55:24.637Z,1018.00
2017-10-30T10:56:26.517Z,1017.81
2017-10-30T10:57:28.424Z,1017.84
2017-10-30T10:58:42.584Z,1017.83
2017-10-30T10:59:44.500Z,1017.83
2017-10-30T11:00:46.383Z,1017.86
2017-10-30T11:01:48.265Z,1017.92
2017-10-30T11:02:50.088Z,1017.84
2017-10-30T11:03:51.909Z,1017.69
2017-10-30T11:04:53.792Z,1017.84
2017-10-30T11:05:55.676Z,1017.90
2017-10-30T11:06:57.558Z,1017.84
2017-10-30T11:08:11.761Z,1018.01
2017-10-30T11:09:13.644Z,1017.99
2017-10-30T11:10:15.530Z,1017.80
2017-10-30T11:11:17.411Z,1017.89
2017-10-30T11:12:19.239Z,1017.83
2017-10-30T11:13:21.058Z,1017.87
2017-10-30T11:14:22.940Z,1018.23
2017-10-30T11:15:24.819Z,1018.02
2017-10-30T11:16:26.698Z,1017.97
2017-10-30T11:17:40.863Z,1017.86
2017-10-30T11:18:42.762Z,1017.79
2017-10-30T11:19:44.630Z,1017.83
2017-10-30T11:20:46.510Z,1017.82
2017-10-30T11:21:48.342Z,1017.86
2017-10-30T11:22:50.172Z,1017.93
2017-10-30T11:23:52.082Z,1017.88
2017-10-30T11:24:53.956Z,1017.81
2017-10-30T11:25:55.835Z,1017.89
2017-10-30T11:27:10.024Z,1017.91
2017-10-30T11:28:11.900Z,1018.29
2017-10-30T11:29:13.789Z,1017.95
2017-10-30T11:30:15.661Z,1018.16
2017-10-30T11:31:17.484Z,1018.05
2017-10-30T11:32:19.303Z,1018.04
2017-10-30T11:33:21.187Z,1018.14
2017-10-30T11:34:23.069Z,1018.13
2017-10-30T11:35:24.949Z,1018.07
2017-10-30T11:36:39.120Z,1017.92
2017-10-30T11:37:40.997Z,1018.10
2017-10-30T11:38:42.887Z,1018.13
2017-10-30T11:39:44.765Z,1018.15
2017-10-30T11:40:46.586Z,1018.35
2017-10-30T11:41:48.416Z,1018.10
2017-10-30T11:42:50.305Z,1018.06
2017-10-30T11:43:52.180Z,1018.08
2017-10-30T11:44:54.059Z,1017.95
2017-10-30T11:46:08.214Z,1018.05
2017-10-30T11:47:10.095Z,1018.03
2017-10-30T11:48:11.978Z,1018.00
2017-10-30T11:49:13.857Z,1017.86
2017-10-30T11:50:15.683Z,1017.98
2017-10-30T11:51:17.505Z,1017.92
2017-10-30T11:52:19.431Z,1017.88
2017-10-30T11:53:21.315Z,1017.92
2017-10-30T11:54:23.195Z,1017.88
2017-10-30T11:55:37.352Z,1018.17
2017-10-30T11:56:39.235Z,1018.00
2017-10-30T11:57:41.115Z,1018.02
2017-10-30T11:58:42.996Z,1017.94
2017-10-30T11:59:44.822Z,1018.11
2017-10-30T12:00:46.641Z,1017.96
2017-10-30T12:01:48.537Z,1018.01
2017-10-30T12:02:50.410Z,1017.99
2017-10-30T12:03:52.290Z,1017.99
2017-10-30T12:05:06.468Z,1017.93
2017-10-30T12:06:08.419Z,1017.99
2017-10-30T12:07:10.690Z,1017.97
2017-10-30T12:08:12.539Z,1017.98
2017-10-30T12:09:14.361Z,1017.94
2017-10-30T12:10:16.184Z,1018.11
2017-10-30T12:11:18.019Z,1018.04
2017-10-30T12:12:19.854Z,1018.01
2017-10-30T12:13:21.673Z,1017.95
2017-10-30T12:14:35.826Z,1018.06
2017-10-30T12:15:37.704Z,1017.94
2017-10-30T12:16:39.597Z,1018.14
2017-10-30T12:17:41.499Z,1018.10
2017-10-30T12:18:43.299Z,1017.99
2017-10-30T12:19:45.129Z,1018.06
2017-10-30T12:20:47.011Z,1018.06
2017-10-30T12:21:48.891Z,1018.11
2017-10-30T12:22:50.771Z,1018.24
2017-10-30T12:24:04.975Z,1018.10
2017-10-30T12:25:07.003Z,1018.13
2017-10-30T12:26:08.966Z,1018.04
2017-10-30T12:27:10.903Z,1018.09
2017-10-30T12:28:12.735Z,1018.15
2017-10-30T12:29:14.554Z,1018.15
2017-10-30T12:30:16.522Z,1018.44
2017-10-30T12:31:18.401Z,1018.45
2017-10-30T12:32:20.283Z,1018.22
2017-10-30T12:33:34.439Z,1018.32
2017-10-30T12:34:36.317Z,1018.42
2017-10-30T12:35:38.199Z,1018.34
2017-10-30T12:36:40.077Z,1018.36
2017-10-30T12:37:41.900Z,1018.51
2017-10-30T12:38:43.848Z,1018.46
2017-10-30T12:39:45.843Z,1018.31
2017-10-30T12:40:47.721Z,1018.41
2017-10-30T12:41:49.625Z,1018.63
2017-10-30T12:43:03.743Z,1018.53
2017-10-30T12:44:05.565Z,1018.65
2017-10-30T12:45:07.388Z,1018.44